Terminal Aerodrome Forecast
Issued by NWS

Home | Current Version | Previous Version | Text Only | Print | Product List | Glossary On
Versions: 1 2 3 4 5 6 7 8 9 10 11 12 13 14 15 16
588
FTUS44 KBMX 272348 CCA
TAFANB
TAF COR
KANB 272348Z 2800/2824 05004KT P6SM BKN120 OVC250
      TEMPO 2803/2807 SCT007 BKN015 OVC030
     FM280700 07004KT 6SM BR BKN007 OVC020
     FM281100 09004KT 2SM BR OVC004
     FM281500 11005KT P6SM VCSH OVC007
     FM281900 17009KT P6SM VCSH SCT007 OVC013=

USA.gov is the U.S. government's official web portal to all federal, state and local government web resources and services.